<?xml version="1.0" encoding="UTF-8" standalone="no" ?>
<gpx xmlns="http://www.topografix.com/GPX/1/1" xmlns:xsi="http://www.w3.org/2001/XMLSchema-instance" xsi:schemaLocation="http://www.topografix.com/GPX/1/1 http://www.topografix.com/GPX/1/1/gpx.xsd" version="1.1" creator="VisuGPX - https://www.visugpx.com">
  <metadata>
    <name>RSPFY-Poteau des Hauts Besnières</name>
    <desc><![CDATA[marche nordique depuis le poteau des Hauts Besnières, parcours en deux boucles:
une dans le bois des Hauts Besnières et une dans le bois des Gaules.]]></desc>
  </metadata>
  <trk>
    <name><![CDATA[2021-08-05 08:59]]></name>
    <desc><![CDATA[<p>Heure de départ: 08:59 5 août 2021<br/>Heure d'arrivée: 11:31 5 août 2021<br/>Distance: 11,2 km (02:32)<br/>Temps déplacement: 01:51<br/>Vitesse moyenne: 4,41 km/h<br/>Vitesse moyenne mouv.: 6,03 km/h<br/>Vitesse Max.: 18,93 km/h<br/>Altitude minimale: 131 m<br/>Altitude maximale: 175 m<br/>Vitesse de montée: 179,9 m/h<br/>Vitesse de descente: -140,1 m/h<br/>Gain d'altitude: 189 m<br/>Perte d'altitude: -192 m<br/>Temps de montée: 01:03<br/>Temps de descente: 01:22<br/></p><hr align="center" width="480" style="height: 2px; width: 517px"/>]]></desc>
    <trkseg>
      <trkpt lat="48.65545" lon="1.9248">
        <ele>172.9</ele>
        <time>2021-08-05T06:59:30Z</time>
      </trkpt>
      <trkpt lat="48.65528" lon="1.92468">
        <ele>172.9</ele>
        <time>2021-08-05T07:02:02Z</time>
      </trkpt>
      <trkpt lat="48.65517" lon="1.92446">
        <ele>172.9</ele>
        <time>2021-08-05T07:02:17Z</time>
      </trkpt>
      <trkpt lat="48.65501" lon="1.92431">
        <ele>173</ele>
        <time>2021-08-05T07:02:33Z</time>
      </trkpt>
      <trkpt lat="48.65487" lon="1.9241">
        <ele>173</ele>
        <time>2021-08-05T07:02:46Z</time>
      </trkpt>
      <trkpt lat="48.65473" lon="1.92391">
        <ele>173.1</ele>
        <time>2021-08-05T07:02:59Z</time>
      </trkpt>
      <trkpt lat="48.65455" lon="1.92382">
        <ele>173.2</ele>
        <time>2021-08-05T07:03:11Z</time>
      </trkpt>
      <trkpt lat="48.65442" lon="1.92363">
        <ele>173.5</ele>
        <time>2021-08-05T07:03:25Z</time>
      </trkpt>
      <trkpt lat="48.65426" lon="1.9235">
        <ele>173.7</ele>
        <time>2021-08-05T07:03:39Z</time>
      </trkpt>
      <trkpt lat="48.6541" lon="1.92333">
        <ele>174.3</ele>
        <time>2021-08-05T07:03:54Z</time>
      </trkpt>
      <trkpt lat="48.65394" lon="1.92317">
        <ele>175.3</ele>
        <time>2021-08-05T07:04:07Z</time>
      </trkpt>
      <trkpt lat="48.65381" lon="1.92297">
        <ele>176.1</ele>
        <time>2021-08-05T07:04:21Z</time>
      </trkpt>
      <trkpt lat="48.65366" lon="1.92281">
        <ele>177</ele>
        <time>2021-08-05T07:04:34Z</time>
      </trkpt>
      <trkpt lat="48.65353" lon="1.92262">
        <ele>177.9</ele>
        <time>2021-08-05T07:04:45Z</time>
      </trkpt>
      <trkpt lat="48.65335" lon="1.92249">
        <ele>178.9</ele>
        <time>2021-08-05T07:04:57Z</time>
      </trkpt>
      <trkpt lat="48.65319" lon="1.92234">
        <ele>178.8</ele>
        <time>2021-08-05T07:05:10Z</time>
      </trkpt>
      <trkpt lat="48.65304" lon="1.92216">
        <ele>178.5</ele>
        <time>2021-08-05T07:05:25Z</time>
      </trkpt>
      <trkpt lat="48.65291" lon="1.92195">
        <ele>178.2</ele>
        <time>2021-08-05T07:05:37Z</time>
      </trkpt>
      <trkpt lat="48.65275" lon="1.92177">
        <ele>177.7</ele>
        <time>2021-08-05T07:05:49Z</time>
      </trkpt>
      <trkpt lat="48.6526" lon="1.92161">
        <ele>177.2</ele>
        <time>2021-08-05T07:06:00Z</time>
      </trkpt>
      <trkpt lat="48.65244" lon="1.92147">
        <ele>176.9</ele>
        <time>2021-08-05T07:06:12Z</time>
      </trkpt>
      <trkpt lat="48.65226" lon="1.92147">
        <ele>177.3</ele>
        <time>2021-08-05T07:06:39Z</time>
      </trkpt>
      <trkpt lat="48.65215" lon="1.92169">
        <ele>177.9</ele>
        <time>2021-08-05T07:06:52Z</time>
      </trkpt>
      <trkpt lat="48.65206" lon="1.92194">
        <ele>178</ele>
        <time>2021-08-05T07:07:06Z</time>
      </trkpt>
      <trkpt lat="48.65195" lon="1.92217">
        <ele>178.1</ele>
        <time>2021-08-05T07:07:19Z</time>
      </trkpt>
      <trkpt lat="48.65186" lon="1.92241">
        <ele>178.1</ele>
        <time>2021-08-05T07:07:35Z</time>
      </trkpt>
      <trkpt lat="48.65176" lon="1.92266">
        <ele>177.6</ele>
        <time>2021-08-05T07:07:55Z</time>
      </trkpt>
      <trkpt lat="48.65164" lon="1.92289">
        <ele>177.1</ele>
        <time>2021-08-05T07:08:08Z</time>
      </trkpt>
      <trkpt lat="48.65153" lon="1.92313">
        <ele>176.7</ele>
        <time>2021-08-05T07:08:21Z</time>
      </trkpt>
      <trkpt lat="48.65144" lon="1.92338">
        <ele>176.6</ele>
        <time>2021-08-05T07:08:34Z</time>
      </trkpt>
      <trkpt lat="48.65133" lon="1.92362">
        <ele>176.9</ele>
        <time>2021-08-05T07:08:46Z</time>
      </trkpt>
      <trkpt lat="48.65124" lon="1.92385">
        <ele>177</ele>
        <time>2021-08-05T07:08:57Z</time>
      </trkpt>
      <trkpt lat="48.65112" lon="1.92407">
        <ele>177</ele>
        <time>2021-08-05T07:09:11Z</time>
      </trkpt>
      <trkpt lat="48.65101" lon="1.92431">
        <ele>177</ele>
        <time>2021-08-05T07:09:26Z</time>
      </trkpt>
      <trkpt lat="48.6509" lon="1.92454">
        <ele>177</ele>
        <time>2021-08-05T07:09:40Z</time>
      </trkpt>
      <trkpt lat="48.65082" lon="1.9248">
        <ele>177</ele>
        <time>2021-08-05T07:09:52Z</time>
      </trkpt>
      <trkpt lat="48.65069" lon="1.92501">
        <ele>176.8</ele>
        <time>2021-08-05T07:10:05Z</time>
      </trkpt>
      <trkpt lat="48.6506" lon="1.92527">
        <ele>176.3</ele>
        <time>2021-08-05T07:10:17Z</time>
      </trkpt>
      <trkpt lat="48.6505" lon="1.92552">
        <ele>175.7</ele>
        <time>2021-08-05T07:10:29Z</time>
      </trkpt>
      <trkpt lat="48.65039" lon="1.92573">
        <ele>175.1</ele>
        <time>2021-08-05T07:10:41Z</time>
      </trkpt>
      <trkpt lat="48.65026" lon="1.92595">
        <ele>174.7</ele>
        <time>2021-08-05T07:10:54Z</time>
      </trkpt>
      <trkpt lat="48.65016" lon="1.92619">
        <ele>174.6</ele>
        <time>2021-08-05T07:11:06Z</time>
      </trkpt>
      <trkpt lat="48.65007" lon="1.92643">
        <ele>174.8</ele>
        <time>2021-08-05T07:11:21Z</time>
      </trkpt>
      <trkpt lat="48.64997" lon="1.92668">
        <ele>175</ele>
        <time>2021-08-05T07:11:34Z</time>
      </trkpt>
      <trkpt lat="48.64987" lon="1.92691">
        <ele>175</ele>
        <time>2021-08-05T07:11:47Z</time>
      </trkpt>
      <trkpt lat="48.64975" lon="1.92714">
        <ele>174.8</ele>
        <time>2021-08-05T07:11:59Z</time>
      </trkpt>
      <trkpt lat="48.64968" lon="1.92739">
        <ele>174.7</ele>
        <time>2021-08-05T07:12:12Z</time>
      </trkpt>
      <trkpt lat="48.64959" lon="1.92763">
        <ele>174.2</ele>
        <time>2021-08-05T07:12:23Z</time>
      </trkpt>
      <trkpt lat="48.64946" lon="1.92785">
        <ele>173.5</ele>
        <time>2021-08-05T07:12:34Z</time>
      </trkpt>
      <trkpt lat="48.64932" lon="1.92805">
        <ele>172.9</ele>
        <time>2021-08-05T07:12:46Z</time>
      </trkpt>
      <trkpt lat="48.64922" lon="1.92828">
        <ele>172.2</ele>
        <time>2021-08-05T07:13:00Z</time>
      </trkpt>
      <trkpt lat="48.64912" lon="1.92853">
        <ele>171.7</ele>
        <time>2021-08-05T07:13:13Z</time>
      </trkpt>
      <trkpt lat="48.64905" lon="1.92878">
        <ele>171.4</ele>
        <time>2021-08-05T07:13:30Z</time>
      </trkpt>
      <trkpt lat="48.64886" lon="1.92881">
        <ele>171.3</ele>
        <time>2021-08-05T07:16:13Z</time>
      </trkpt>
      <trkpt lat="48.64871" lon="1.92864">
        <ele>171.3</ele>
        <time>2021-08-05T07:16:24Z</time>
      </trkpt>
      <trkpt lat="48.64858" lon="1.92846">
        <ele>171.2</ele>
        <time>2021-08-05T07:16:34Z</time>
      </trkpt>
      <trkpt lat="48.64843" lon="1.9283">
        <ele>171.1</ele>
        <time>2021-08-05T07:16:46Z</time>
      </trkpt>
      <trkpt lat="48.64827" lon="1.92812">
        <ele>170.9</ele>
        <time>2021-08-05T07:16:59Z</time>
      </trkpt>
      <trkpt lat="48.64812" lon="1.92795">
        <ele>170.5</ele>
        <time>2021-08-05T07:17:10Z</time>
      </trkpt>
      <trkpt lat="48.64798" lon="1.92775">
        <ele>170.2</ele>
        <time>2021-08-05T07:17:24Z</time>
      </trkpt>
      <trkpt lat="48.64782" lon="1.92759">
        <ele>169.8</ele>
        <time>2021-08-05T07:17:34Z</time>
      </trkpt>
      <trkpt lat="48.64766" lon="1.92741">
        <ele>169.6</ele>
        <time>2021-08-05T07:18:01Z</time>
      </trkpt>
      <trkpt lat="48.64749" lon="1.92724">
        <ele>169.6</ele>
        <time>2021-08-05T07:18:09Z</time>
      </trkpt>
      <trkpt lat="48.64734" lon="1.92706">
        <ele>170.2</ele>
        <time>2021-08-05T07:18:18Z</time>
      </trkpt>
      <trkpt lat="48.64718" lon="1.9269">
        <ele>170.7</ele>
        <time>2021-08-05T07:18:30Z</time>
      </trkpt>
      <trkpt lat="48.64703" lon="1.92675">
        <ele>171.3</ele>
        <time>2021-08-05T07:18:41Z</time>
      </trkpt>
      <trkpt lat="48.64684" lon="1.92663">
        <ele>171.8</ele>
        <time>2021-08-05T07:18:50Z</time>
      </trkpt>
      <trkpt lat="48.64666" lon="1.92653">
        <ele>172.2</ele>
        <time>2021-08-05T07:18:57Z</time>
      </trkpt>
      <trkpt lat="48.64655" lon="1.92632">
        <ele>172.6</ele>
        <time>2021-08-05T07:19:22Z</time>
      </trkpt>
      <trkpt lat="48.64642" lon="1.92611">
        <ele>172.9</ele>
        <time>2021-08-05T07:19:32Z</time>
      </trkpt>
      <trkpt lat="48.64628" lon="1.92592">
        <ele>173</ele>
        <time>2021-08-05T07:19:46Z</time>
      </trkpt>
      <trkpt lat="48.6461" lon="1.92602">
        <ele>173.1</ele>
        <time>2021-08-05T07:19:59Z</time>
      </trkpt>
      <trkpt lat="48.64597" lon="1.92623">
        <ele>173.3</ele>
        <time>2021-08-05T07:20:09Z</time>
      </trkpt>
      <trkpt lat="48.64581" lon="1.92646">
        <ele>173.6</ele>
        <time>2021-08-05T07:20:29Z</time>
      </trkpt>
      <trkpt lat="48.64572" lon="1.92672">
        <ele>173.3</ele>
        <time>2021-08-05T07:20:35Z</time>
      </trkpt>
      <trkpt lat="48.64559" lon="1.92692">
        <ele>172</ele>
        <time>2021-08-05T07:20:49Z</time>
      </trkpt>
      <trkpt lat="48.64552" lon="1.92721">
        <ele>170.5</ele>
        <time>2021-08-05T07:21:02Z</time>
      </trkpt>
      <trkpt lat="48.64542" lon="1.92745">
        <ele>168.8</ele>
        <time>2021-08-05T07:21:14Z</time>
      </trkpt>
      <trkpt lat="48.6453" lon="1.92766">
        <ele>167</ele>
        <time>2021-08-05T07:21:43Z</time>
      </trkpt>
      <trkpt lat="48.64516" lon="1.92785">
        <ele>165.2</ele>
        <time>2021-08-05T07:21:49Z</time>
      </trkpt>
      <trkpt lat="48.64505" lon="1.92808">
        <ele>163.4</ele>
        <time>2021-08-05T07:21:59Z</time>
      </trkpt>
      <trkpt lat="48.64493" lon="1.9283">
        <ele>161.4</ele>
        <time>2021-08-05T07:22:15Z</time>
      </trkpt>
      <trkpt lat="48.64478" lon="1.92852">
        <ele>159</ele>
        <time>2021-08-05T07:22:22Z</time>
      </trkpt>
      <trkpt lat="48.64475" lon="1.92879">
        <ele>157.9</ele>
        <time>2021-08-05T07:22:42Z</time>
      </trkpt>
      <trkpt lat="48.64465" lon="1.92902">
        <ele>156.7</ele>
        <time>2021-08-05T07:23:01Z</time>
      </trkpt>
      <trkpt lat="48.64451" lon="1.92924">
        <ele>155.6</ele>
        <time>2021-08-05T07:23:12Z</time>
      </trkpt>
      <trkpt lat="48.64437" lon="1.92946">
        <ele>154.6</ele>
        <time>2021-08-05T07:23:23Z</time>
      </trkpt>
      <trkpt lat="48.64436" lon="1.92975">
        <ele>154.2</ele>
        <time>2021-08-05T07:23:35Z</time>
      </trkpt>
      <trkpt lat="48.64423" lon="1.92995">
        <ele>153.4</ele>
        <time>2021-08-05T07:23:47Z</time>
      </trkpt>
      <trkpt lat="48.64412" lon="1.93017">
        <ele>153.3</ele>
        <time>2021-08-05T07:24:05Z</time>
      </trkpt>
      <trkpt lat="48.64402" lon="1.93041">
        <ele>154</ele>
        <time>2021-08-05T07:24:17Z</time>
      </trkpt>
      <trkpt lat="48.64394" lon="1.93066">
        <ele>154.4</ele>
        <time>2021-08-05T07:24:37Z</time>
      </trkpt>
      <trkpt lat="48.64395" lon="1.93094">
        <ele>154.3</ele>
        <time>2021-08-05T07:24:53Z</time>
      </trkpt>
      <trkpt lat="48.64397" lon="1.93121">
        <ele>154.3</ele>
        <time>2021-08-05T07:25:30Z</time>
      </trkpt>
      <trkpt lat="48.64397" lon="1.93149">
        <ele>154.4</ele>
        <time>2021-08-05T07:25:55Z</time>
      </trkpt>
      <trkpt lat="48.64399" lon="1.9318">
        <ele>154.2</ele>
        <time>2021-08-05T07:26:07Z</time>
      </trkpt>
      <trkpt lat="48.64401" lon="1.93207">
        <ele>153.6</ele>
        <time>2021-08-05T07:26:14Z</time>
      </trkpt>
      <trkpt lat="48.64396" lon="1.93236">
        <ele>153.1</ele>
        <time>2021-08-05T07:26:19Z</time>
      </trkpt>
      <trkpt lat="48.64385" lon="1.93259">
        <ele>152.6</ele>
        <time>2021-08-05T07:26:27Z</time>
      </trkpt>
      <trkpt lat="48.64388" lon="1.93289">
        <ele>152.3</ele>
        <time>2021-08-05T07:26:36Z</time>
      </trkpt>
      <trkpt lat="48.6439" lon="1.93318">
        <ele>152.1</ele>
        <time>2021-08-05T07:26:47Z</time>
      </trkpt>
      <trkpt lat="48.6439" lon="1.93347">
        <ele>151.9</ele>
        <time>2021-08-05T07:26:59Z</time>
      </trkpt>
      <trkpt lat="48.64379" lon="1.93368">
        <ele>151.6</ele>
        <time>2021-08-05T07:27:12Z</time>
      </trkpt>
      <trkpt lat="48.64376" lon="1.93396">
        <ele>151.3</ele>
        <time>2021-08-05T07:27:23Z</time>
      </trkpt>
      <trkpt lat="48.6437" lon="1.93422">
        <ele>150.9</ele>
        <time>2021-08-05T07:27:39Z</time>
      </trkpt>
      <trkpt lat="48.64376" lon="1.93449">
        <ele>150.8</ele>
        <time>2021-08-05T07:28:08Z</time>
      </trkpt>
      <trkpt lat="48.64392" lon="1.93462">
        <ele>151.2</ele>
        <time>2021-08-05T07:28:23Z</time>
      </trkpt>
      <trkpt lat="48.64383" lon="1.93487">
        <ele>150.8</ele>
        <time>2021-08-05T07:29:05Z</time>
      </trkpt>
      <trkpt lat="48.64381" lon="1.93517">
        <ele>151.2</ele>
        <time>2021-08-05T07:29:08Z</time>
      </trkpt>
      <trkpt lat="48.64375" lon="1.93549">
        <ele>151.7</ele>
        <time>2021-08-05T07:29:11Z</time>
      </trkpt>
      <trkpt lat="48.64359" lon="1.93569">
        <ele>150.9</ele>
        <time>2021-08-05T07:29:26Z</time>
      </trkpt>
      <trkpt lat="48.64348" lon="1.93591">
        <ele>150.3</ele>
        <time>2021-08-05T07:29:50Z</time>
      </trkpt>
      <trkpt lat="48.64341" lon="1.93616">
        <ele>149.8</ele>
        <time>2021-08-05T07:30:04Z</time>
      </trkpt>
      <trkpt lat="48.64339" lon="1.93645">
        <ele>149.7</ele>
        <time>2021-08-05T07:30:34Z</time>
      </trkpt>
      <trkpt lat="48.64339" lon="1.93673">
        <ele>149.9</ele>
        <time>2021-08-05T07:30:42Z</time>
      </trkpt>
      <trkpt lat="48.64342" lon="1.93701">
        <ele>150.2</ele>
        <time>2021-08-05T07:30:52Z</time>
      </trkpt>
      <trkpt lat="48.64342" lon="1.9373">
        <ele>150.3</ele>
        <time>2021-08-05T07:31:15Z</time>
      </trkpt>
      <trkpt lat="48.64338" lon="1.93763">
        <ele>149.7</ele>
        <time>2021-08-05T07:31:23Z</time>
      </trkpt>
      <trkpt lat="48.64334" lon="1.938">
        <ele>149.2</ele>
        <time>2021-08-05T07:31:25Z</time>
      </trkpt>
      <trkpt lat="48.64333" lon="1.93828">
        <ele>149</ele>
        <time>2021-08-05T07:31:36Z</time>
      </trkpt>
      <trkpt lat="48.64327" lon="1.93856">
        <ele>148.1</ele>
        <time>2021-08-05T07:31:52Z</time>
      </trkpt>
      <trkpt lat="48.64326" lon="1.93885">
        <ele>147.3</ele>
        <time>2021-08-05T07:32:28Z</time>
      </trkpt>
      <trkpt lat="48.64329" lon="1.93928">
        <ele>146.2</ele>
        <time>2021-08-05T07:32:38Z</time>
      </trkpt>
      <trkpt lat="48.64332" lon="1.93957">
        <ele>145</ele>
        <time>2021-08-05T07:33:09Z</time>
      </trkpt>
      <trkpt lat="48.64332" lon="1.93985">
        <ele>143.6</ele>
        <time>2021-08-05T07:33:15Z</time>
      </trkpt>
      <trkpt lat="48.64332" lon="1.94013">
        <ele>143.1</ele>
        <time>2021-08-05T07:33:23Z</time>
      </trkpt>
      <trkpt lat="48.64337" lon="1.94041">
        <ele>144.4</ele>
        <time>2021-08-05T07:33:29Z</time>
      </trkpt>
      <trkpt lat="48.6434" lon="1.9407">
        <ele>145.3</ele>
        <time>2021-08-05T07:33:40Z</time>
      </trkpt>
      <trkpt lat="48.64322" lon="1.94082">
        <ele>143.3</ele>
        <time>2021-08-05T07:33:50Z</time>
      </trkpt>
      <trkpt lat="48.64303" lon="1.94081">
        <ele>142.2</ele>
        <time>2021-08-05T07:34:10Z</time>
      </trkpt>
      <trkpt lat="48.64298" lon="1.94111">
        <ele>142.2</ele>
        <time>2021-08-05T07:34:43Z</time>
      </trkpt>
      <trkpt lat="48.64296" lon="1.94139">
        <ele>142.4</ele>
        <time>2021-08-05T07:34:51Z</time>
      </trkpt>
      <trkpt lat="48.64293" lon="1.94167">
        <ele>142.6</ele>
        <time>2021-08-05T07:34:57Z</time>
      </trkpt>
      <trkpt lat="48.64286" lon="1.94195">
        <ele>142.2</ele>
        <time>2021-08-05T07:35:13Z</time>
      </trkpt>
      <trkpt lat="48.6428" lon="1.94224">
        <ele>141.7</ele>
        <time>2021-08-05T07:35:23Z</time>
      </trkpt>
      <trkpt lat="48.6428" lon="1.94252">
        <ele>141.6</ele>
        <time>2021-08-05T07:35:36Z</time>
      </trkpt>
      <trkpt lat="48.64283" lon="1.94279">
        <ele>141.9</ele>
        <time>2021-08-05T07:35:51Z</time>
      </trkpt>
      <trkpt lat="48.64284" lon="1.94306">
        <ele>142.1</ele>
        <time>2021-08-05T07:36:10Z</time>
      </trkpt>
      <trkpt lat="48.6428" lon="1.94334">
        <ele>141.4</ele>
        <time>2021-08-05T07:36:25Z</time>
      </trkpt>
      <trkpt lat="48.6428" lon="1.94362">
        <ele>141.5</ele>
        <time>2021-08-05T07:36:45Z</time>
      </trkpt>
      <trkpt lat="48.6428" lon="1.94391">
        <ele>141.7</ele>
        <time>2021-08-05T07:36:47Z</time>
      </trkpt>
      <trkpt lat="48.64286" lon="1.94426">
        <ele>142.6</ele>
        <time>2021-08-05T07:37:09Z</time>
      </trkpt>
      <trkpt lat="48.64291" lon="1.94453">
        <ele>143</ele>
        <time>2021-08-05T07:37:19Z</time>
      </trkpt>
      <trkpt lat="48.64289" lon="1.94485">
        <ele>141.7</ele>
        <time>2021-08-05T07:37:24Z</time>
      </trkpt>
      <trkpt lat="48.64289" lon="1.94513">
        <ele>140.8</ele>
        <time>2021-08-05T07:37:41Z</time>
      </trkpt>
      <trkpt lat="48.64293" lon="1.94541">
        <ele>140.6</ele>
        <time>2021-08-05T07:37:47Z</time>
      </trkpt>
      <trkpt lat="48.64298" lon="1.94569">
        <ele>140.6</ele>
        <time>2021-08-05T07:38:01Z</time>
      </trkpt>
      <trkpt lat="48.64295" lon="1.94597">
        <ele>139.7</ele>
        <time>2021-08-05T07:38:19Z</time>
      </trkpt>
      <trkpt lat="48.64291" lon="1.94628">
        <ele>139.9</ele>
        <time>2021-08-05T07:38:49Z</time>
      </trkpt>
      <trkpt lat="48.6428" lon="1.94674">
        <ele>139.2</ele>
        <time>2021-08-05T07:39:01Z</time>
      </trkpt>
      <trkpt lat="48.64265" lon="1.94692">
        <ele>136.7</ele>
        <time>2021-08-05T07:39:25Z</time>
      </trkpt>
      <trkpt lat="48.64254" lon="1.94714">
        <ele>135.6</ele>
        <time>2021-08-05T07:39:57Z</time>
      </trkpt>
      <trkpt lat="48.64236" lon="1.94725">
        <ele>135.3</ele>
        <time>2021-08-05T07:40:50Z</time>
      </trkpt>
      <trkpt lat="48.6422" lon="1.9474">
        <ele>136</ele>
        <time>2021-08-05T07:41:06Z</time>
      </trkpt>
      <trkpt lat="48.642" lon="1.94735">
        <ele>135.3</ele>
        <time>2021-08-05T07:41:20Z</time>
      </trkpt>
      <trkpt lat="48.64182" lon="1.94738">
        <ele>135.2</ele>
        <time>2021-08-05T07:41:38Z</time>
      </trkpt>
      <trkpt lat="48.64161" lon="1.9474">
        <ele>134.7</ele>
        <time>2021-08-05T07:41:51Z</time>
      </trkpt>
      <trkpt lat="48.64143" lon="1.9474">
        <ele>133.4</ele>
        <time>2021-08-05T07:42:04Z</time>
      </trkpt>
      <trkpt lat="48.64124" lon="1.94742">
        <ele>132</ele>
        <time>2021-08-05T07:42:22Z</time>
      </trkpt>
      <trkpt lat="48.64104" lon="1.94745">
        <ele>130.5</ele>
        <time>2021-08-05T07:42:31Z</time>
      </trkpt>
      <trkpt lat="48.64086" lon="1.94748">
        <ele>129.2</ele>
        <time>2021-08-05T07:42:40Z</time>
      </trkpt>
      <trkpt lat="48.64069" lon="1.9476">
        <ele>128.5</ele>
        <time>2021-08-05T07:43:05Z</time>
      </trkpt>
      <trkpt lat="48.6405" lon="1.94783">
        <ele>127.7</ele>
        <time>2021-08-05T07:43:26Z</time>
      </trkpt>
      <trkpt lat="48.64034" lon="1.94799">
        <ele>127.3</ele>
        <time>2021-08-05T07:44:01Z</time>
      </trkpt>
      <trkpt lat="48.64019" lon="1.94813">
        <ele>127.1</ele>
        <time>2021-08-05T07:44:13Z</time>
      </trkpt>
      <trkpt lat="48.64013" lon="1.94839">
        <ele>126.8</ele>
        <time>2021-08-05T07:44:43Z</time>
      </trkpt>
      <trkpt lat="48.64009" lon="1.94866">
        <ele>126.5</ele>
        <time>2021-08-05T07:44:53Z</time>
      </trkpt>
      <trkpt lat="48.64006" lon="1.94893">
        <ele>126.3</ele>
        <time>2021-08-05T07:45:04Z</time>
      </trkpt>
      <trkpt lat="48.64001" lon="1.9492">
        <ele>126</ele>
        <time>2021-08-05T07:45:17Z</time>
      </trkpt>
      <trkpt lat="48.63994" lon="1.94948">
        <ele>126</ele>
        <time>2021-08-05T07:45:28Z</time>
      </trkpt>
      <trkpt lat="48.63989" lon="1.94976">
        <ele>126</ele>
        <time>2021-08-05T07:45:41Z</time>
      </trkpt>
      <trkpt lat="48.63989" lon="1.95003">
        <ele>126.1</ele>
        <time>2021-08-05T07:45:54Z</time>
      </trkpt>
      <trkpt lat="48.63976" lon="1.95023">
        <ele>126.6</ele>
        <time>2021-08-05T07:46:08Z</time>
      </trkpt>
      <trkpt lat="48.63983" lon="1.95049">
        <ele>127.2</ele>
        <time>2021-08-05T07:46:25Z</time>
      </trkpt>
      <trkpt lat="48.63999" lon="1.95061">
        <ele>127.5</ele>
        <time>2021-08-05T07:46:40Z</time>
      </trkpt>
      <trkpt lat="48.64012" lon="1.95081">
        <ele>127.8</ele>
        <time>2021-08-05T07:46:58Z</time>
      </trkpt>
      <trkpt lat="48.6402" lon="1.95107">
        <ele>130.3</ele>
        <time>2021-08-05T07:47:15Z</time>
      </trkpt>
      <trkpt lat="48.64033" lon="1.95133">
        <ele>133.3</ele>
        <time>2021-08-05T07:47:25Z</time>
      </trkpt>
      <trkpt lat="48.64049" lon="1.9515">
        <ele>135.7</ele>
        <time>2021-08-05T07:47:42Z</time>
      </trkpt>
      <trkpt lat="48.64068" lon="1.95151">
        <ele>136.4</ele>
        <time>2021-08-05T07:47:53Z</time>
      </trkpt>
      <trkpt lat="48.64088" lon="1.95154">
        <ele>137.2</ele>
        <time>2021-08-05T07:47:56Z</time>
      </trkpt>
      <trkpt lat="48.64107" lon="1.95153">
        <ele>137.3</ele>
        <time>2021-08-05T07:48:29Z</time>
      </trkpt>
      <trkpt lat="48.64129" lon="1.95154">
        <ele>137.6</ele>
        <time>2021-08-05T07:48:33Z</time>
      </trkpt>
      <trkpt lat="48.6415" lon="1.95154">
        <ele>137.6</ele>
        <time>2021-08-05T07:48:58Z</time>
      </trkpt>
      <trkpt lat="48.64171" lon="1.95156">
        <ele>138</ele>
        <time>2021-08-05T07:49:06Z</time>
      </trkpt>
      <trkpt lat="48.6419" lon="1.95161">
        <ele>137.5</ele>
        <time>2021-08-05T07:49:27Z</time>
      </trkpt>
      <trkpt lat="48.6421" lon="1.95163">
        <ele>136.4</ele>
        <time>2021-08-05T07:49:40Z</time>
      </trkpt>
      <trkpt lat="48.64228" lon="1.95169">
        <ele>136</ele>
        <time>2021-08-05T07:49:48Z</time>
      </trkpt>
      <trkpt lat="48.64245" lon="1.9518">
        <ele>136.6</ele>
        <time>2021-08-05T07:49:59Z</time>
      </trkpt>
      <trkpt lat="48.64259" lon="1.952">
        <ele>138.7</ele>
        <time>2021-08-05T07:50:27Z</time>
      </trkpt>
      <trkpt lat="48.64271" lon="1.95223">
        <ele>140.7</ele>
        <time>2021-08-05T07:50:36Z</time>
      </trkpt>
      <trkpt lat="48.64283" lon="1.95244">
        <ele>142</ele>
        <time>2021-08-05T07:50:55Z</time>
      </trkpt>
      <trkpt lat="48.64299" lon="1.95259">
        <ele>142.1</ele>
        <time>2021-08-05T07:51:05Z</time>
      </trkpt>
      <trkpt lat="48.64315" lon="1.95276">
        <ele>143.7</ele>
        <time>2021-08-05T07:51:17Z</time>
      </trkpt>
      <trkpt lat="48.64334" lon="1.95295">
        <ele>145.8</ele>
        <time>2021-08-05T07:51:27Z</time>
      </trkpt>
      <trkpt lat="48.64372" lon="1.95299">
        <ele>147.1</ele>
        <time>2021-08-05T07:51:53Z</time>
      </trkpt>
      <trkpt lat="48.6439" lon="1.95302">
        <ele>147.8</ele>
        <time>2021-08-05T07:52:17Z</time>
      </trkpt>
      <trkpt lat="48.64408" lon="1.95306">
        <ele>149</ele>
        <time>2021-08-05T07:52:30Z</time>
      </trkpt>
      <trkpt lat="48.64428" lon="1.95305">
        <ele>147.8</ele>
        <time>2021-08-05T07:52:40Z</time>
      </trkpt>
      <trkpt lat="48.64446" lon="1.95311">
        <ele>147.2</ele>
        <time>2021-08-05T07:53:10Z</time>
      </trkpt>
      <trkpt lat="48.6447" lon="1.95314">
        <ele>145.2</ele>
        <time>2021-08-05T07:53:21Z</time>
      </trkpt>
      <trkpt lat="48.64486" lon="1.95326">
        <ele>145</ele>
        <time>2021-08-05T07:53:38Z</time>
      </trkpt>
      <trkpt lat="48.64493" lon="1.95355">
        <ele>147.5</ele>
        <time>2021-08-05T07:54:08Z</time>
      </trkpt>
      <trkpt lat="48.64497" lon="1.95383">
        <ele>149.9</ele>
        <time>2021-08-05T07:54:21Z</time>
      </trkpt>
      <trkpt lat="48.64504" lon="1.95413">
        <ele>152.1</ele>
        <time>2021-08-05T07:54:32Z</time>
      </trkpt>
      <trkpt lat="48.64515" lon="1.95437">
        <ele>153.5</ele>
        <time>2021-08-05T07:54:59Z</time>
      </trkpt>
      <trkpt lat="48.64533" lon="1.95433">
        <ele>151</ele>
        <time>2021-08-05T07:55:12Z</time>
      </trkpt>
      <trkpt lat="48.6455" lon="1.95421">
        <ele>147.1</ele>
        <time>2021-08-05T07:55:26Z</time>
      </trkpt>
      <trkpt lat="48.64568" lon="1.95419">
        <ele>144.5</ele>
        <time>2021-08-05T07:55:38Z</time>
      </trkpt>
      <trkpt lat="48.64587" lon="1.95424">
        <ele>143.8</ele>
        <time>2021-08-05T07:55:58Z</time>
      </trkpt>
      <trkpt lat="48.64606" lon="1.95422">
        <ele>144.7</ele>
        <time>2021-08-05T07:57:38Z</time>
      </trkpt>
      <trkpt lat="48.64624" lon="1.95432">
        <ele>147.8</ele>
        <time>2021-08-05T07:57:46Z</time>
      </trkpt>
      <trkpt lat="48.64642" lon="1.95423">
        <ele>147.3</ele>
        <time>2021-08-05T07:57:58Z</time>
      </trkpt>
      <trkpt lat="48.6466" lon="1.95416">
        <ele>147.4</ele>
        <time>2021-08-05T07:58:08Z</time>
      </trkpt>
      <trkpt lat="48.64674" lon="1.95397">
        <ele>147.1</ele>
        <time>2021-08-05T07:58:20Z</time>
      </trkpt>
      <trkpt lat="48.64685" lon="1.95374">
        <ele>145.5</ele>
        <time>2021-08-05T07:58:32Z</time>
      </trkpt>
      <trkpt lat="48.64698" lon="1.95352">
        <ele>143.5</ele>
        <time>2021-08-05T07:58:46Z</time>
      </trkpt>
      <trkpt lat="48.64715" lon="1.95341">
        <ele>142.7</ele>
        <time>2021-08-05T07:59:00Z</time>
      </trkpt>
      <trkpt lat="48.64733" lon="1.95346">
        <ele>145.1</ele>
        <time>2021-08-05T07:59:15Z</time>
      </trkpt>
      <trkpt lat="48.64749" lon="1.95335">
        <ele>143.4</ele>
        <time>2021-08-05T07:59:28Z</time>
      </trkpt>
      <trkpt lat="48.64768" lon="1.95331">
        <ele>142.5</ele>
        <time>2021-08-05T07:59:41Z</time>
      </trkpt>
      <trkpt lat="48.64786" lon="1.95334">
        <ele>142.8</ele>
        <time>2021-08-05T07:59:52Z</time>
      </trkpt>
      <trkpt lat="48.64802" lon="1.95346">
        <ele>145.6</ele>
        <time>2021-08-05T08:00:06Z</time>
      </trkpt>
      <trkpt lat="48.64821" lon="1.95349">
        <ele>146</ele>
        <time>2021-08-05T08:00:17Z</time>
      </trkpt>
      <trkpt lat="48.6484" lon="1.95348">
        <ele>145.7</ele>
        <time>2021-08-05T08:00:32Z</time>
      </trkpt>
      <trkpt lat="48.64859" lon="1.95354">
        <ele>146.8</ele>
        <time>2021-08-05T08:00:46Z</time>
      </trkpt>
      <trkpt lat="48.64877" lon="1.95351">
        <ele>145.9</ele>
        <time>2021-08-05T08:00:59Z</time>
      </trkpt>
      <trkpt lat="48.64895" lon="1.95353">
        <ele>145.9</ele>
        <time>2021-08-05T08:01:12Z</time>
      </trkpt>
      <trkpt lat="48.64914" lon="1.95356">
        <ele>146.4</ele>
        <time>2021-08-05T08:01:27Z</time>
      </trkpt>
      <trkpt lat="48.64933" lon="1.95358">
        <ele>147.1</ele>
        <time>2021-08-05T08:01:46Z</time>
      </trkpt>
      <trkpt lat="48.64952" lon="1.95356">
        <ele>146.7</ele>
        <time>2021-08-05T08:01:58Z</time>
      </trkpt>
      <trkpt lat="48.64971" lon="1.95355">
        <ele>146.7</ele>
        <time>2021-08-05T08:02:10Z</time>
      </trkpt>
      <trkpt lat="48.6499" lon="1.95354">
        <ele>146.6</ele>
        <time>2021-08-05T08:02:21Z</time>
      </trkpt>
      <trkpt lat="48.65007" lon="1.95365">
        <ele>149.1</ele>
        <time>2021-08-05T08:02:33Z</time>
      </trkpt>
      <trkpt lat="48.65025" lon="1.95362">
        <ele>149.5</ele>
        <time>2021-08-05T08:02:48Z</time>
      </trkpt>
      <trkpt lat="48.65043" lon="1.95358">
        <ele>149.5</ele>
        <time>2021-08-05T08:03:01Z</time>
      </trkpt>
      <trkpt lat="48.65061" lon="1.95354">
        <ele>149.8</ele>
        <time>2021-08-05T08:03:10Z</time>
      </trkpt>
      <trkpt lat="48.65079" lon="1.95348">
        <ele>149.6</ele>
        <time>2021-08-05T08:03:22Z</time>
      </trkpt>
      <trkpt lat="48.65095" lon="1.95334">
        <ele>149</ele>
        <time>2021-08-05T08:03:59Z</time>
      </trkpt>
      <trkpt lat="48.65105" lon="1.95311">
        <ele>148.4</ele>
        <time>2021-08-05T08:04:37Z</time>
      </trkpt>
      <trkpt lat="48.6512" lon="1.95295">
        <ele>148.9</ele>
        <time>2021-08-05T08:04:47Z</time>
      </trkpt>
      <trkpt lat="48.65126" lon="1.95268">
        <ele>146.7</ele>
        <time>2021-08-05T08:05:07Z</time>
      </trkpt>
      <trkpt lat="48.65145" lon="1.95259">
        <ele>147.7</ele>
        <time>2021-08-05T08:05:15Z</time>
      </trkpt>
      <trkpt lat="48.65164" lon="1.95265">
        <ele>150.8</ele>
        <time>2021-08-05T08:05:33Z</time>
      </trkpt>
      <trkpt lat="48.65181" lon="1.95274">
        <ele>153.3</ele>
        <time>2021-08-05T08:05:45Z</time>
      </trkpt>
      <trkpt lat="48.65197" lon="1.95288">
        <ele>156</ele>
        <time>2021-08-05T08:05:57Z</time>
      </trkpt>
      <trkpt lat="48.65214" lon="1.95303">
        <ele>158.6</ele>
        <time>2021-08-05T08:06:35Z</time>
      </trkpt>
      <trkpt lat="48.6523" lon="1.9532">
        <ele>161</ele>
        <time>2021-08-05T08:06:46Z</time>
      </trkpt>
      <trkpt lat="48.65244" lon="1.95337">
        <ele>163.2</ele>
        <time>2021-08-05T08:07:09Z</time>
      </trkpt>
      <trkpt lat="48.65259" lon="1.95354">
        <ele>164.3</ele>
        <time>2021-08-05T08:07:39Z</time>
      </trkpt>
      <trkpt lat="48.65277" lon="1.95362">
        <ele>163.7</ele>
        <time>2021-08-05T08:08:19Z</time>
      </trkpt>
      <trkpt lat="48.6529" lon="1.95382">
        <ele>164.4</ele>
        <time>2021-08-05T08:08:37Z</time>
      </trkpt>
      <trkpt lat="48.65304" lon="1.954">
        <ele>165</ele>
        <time>2021-08-05T08:08:51Z</time>
      </trkpt>
      <trkpt lat="48.65319" lon="1.95422">
        <ele>165.6</ele>
        <time>2021-08-05T08:09:07Z</time>
      </trkpt>
      <trkpt lat="48.65328" lon="1.95447">
        <ele>166.5</ele>
        <time>2021-08-05T08:09:20Z</time>
      </trkpt>
      <trkpt lat="48.65328" lon="1.95474">
        <ele>168.5</ele>
        <time>2021-08-05T08:09:34Z</time>
      </trkpt>
      <trkpt lat="48.65332" lon="1.95505">
        <ele>170.2</ele>
        <time>2021-08-05T08:10:00Z</time>
      </trkpt>
      <trkpt lat="48.65331" lon="1.95534">
        <ele>170.9</ele>
        <time>2021-08-05T08:10:10Z</time>
      </trkpt>
      <trkpt lat="48.65342" lon="1.95555">
        <ele>170.7</ele>
        <time>2021-08-05T08:10:23Z</time>
      </trkpt>
      <trkpt lat="48.65339" lon="1.95583">
        <ele>171.6</ele>
        <time>2021-08-05T08:10:39Z</time>
      </trkpt>
      <trkpt lat="48.65339" lon="1.95611">
        <ele>172.6</ele>
        <time>2021-08-05T08:10:52Z</time>
      </trkpt>
      <trkpt lat="48.65339" lon="1.95642">
        <ele>173.7</ele>
        <time>2021-08-05T08:11:14Z</time>
      </trkpt>
      <trkpt lat="48.65341" lon="1.95669">
        <ele>174.3</ele>
        <time>2021-08-05T08:11:27Z</time>
      </trkpt>
      <trkpt lat="48.65342" lon="1.95698">
        <ele>174.1</ele>
        <time>2021-08-05T08:11:43Z</time>
      </trkpt>
      <trkpt lat="48.65339" lon="1.95725">
        <ele>174.1</ele>
        <time>2021-08-05T08:11:55Z</time>
      </trkpt>
      <trkpt lat="48.6534" lon="1.95754">
        <ele>173.7</ele>
        <time>2021-08-05T08:12:05Z</time>
      </trkpt>
      <trkpt lat="48.65347" lon="1.9578">
        <ele>173</ele>
        <time>2021-08-05T08:12:15Z</time>
      </trkpt>
      <trkpt lat="48.65353" lon="1.95807">
        <ele>172.3</ele>
        <time>2021-08-05T08:12:28Z</time>
      </trkpt>
      <trkpt lat="48.65336" lon="1.95818">
        <ele>172.3</ele>
        <time>2021-08-05T08:12:58Z</time>
      </trkpt>
      <trkpt lat="48.6532" lon="1.95805">
        <ele>173.5</ele>
        <time>2021-08-05T08:13:08Z</time>
      </trkpt>
      <trkpt lat="48.653" lon="1.95796">
        <ele>174.9</ele>
        <time>2021-08-05T08:13:15Z</time>
      </trkpt>
      <trkpt lat="48.65282" lon="1.95788">
        <ele>176.1</ele>
        <time>2021-08-05T08:13:37Z</time>
      </trkpt>
      <trkpt lat="48.65265" lon="1.95776">
        <ele>177.5</ele>
        <time>2021-08-05T08:13:47Z</time>
      </trkpt>
      <trkpt lat="48.6525" lon="1.95758">
        <ele>178.8</ele>
        <time>2021-08-05T08:13:57Z</time>
      </trkpt>
      <trkpt lat="48.65231" lon="1.95741">
        <ele>179.3</ele>
        <time>2021-08-05T08:14:08Z</time>
      </trkpt>
      <trkpt lat="48.65214" lon="1.9573">
        <ele>179.7</ele>
        <time>2021-08-05T08:14:35Z</time>
      </trkpt>
      <trkpt lat="48.65198" lon="1.95715">
        <ele>180</ele>
        <time>2021-08-05T08:14:39Z</time>
      </trkpt>
      <trkpt lat="48.6518" lon="1.95704">
        <ele>180.4</ele>
        <time>2021-08-05T08:14:57Z</time>
      </trkpt>
      <trkpt lat="48.65163" lon="1.95689">
        <ele>180.5</ele>
        <time>2021-08-05T08:15:07Z</time>
      </trkpt>
      <trkpt lat="48.65147" lon="1.95678">
        <ele>179.8</ele>
        <time>2021-08-05T08:15:40Z</time>
      </trkpt>
      <trkpt lat="48.65145" lon="1.95651">
        <ele>180.1</ele>
        <time>2021-08-05T08:16:56Z</time>
      </trkpt>
      <trkpt lat="48.65145" lon="1.95623">
        <ele>180.2</ele>
        <time>2021-08-05T08:17:26Z</time>
      </trkpt>
      <trkpt lat="48.65144" lon="1.95595">
        <ele>180.4</ele>
        <time>2021-08-05T08:17:49Z</time>
      </trkpt>
      <trkpt lat="48.65137" lon="1.95569">
        <ele>179.8</ele>
        <time>2021-08-05T08:18:03Z</time>
      </trkpt>
      <trkpt lat="48.6512" lon="1.95559">
        <ele>179.2</ele>
        <time>2021-08-05T08:18:15Z</time>
      </trkpt>
      <trkpt lat="48.65101" lon="1.95558">
        <ele>178.7</ele>
        <time>2021-08-05T08:18:31Z</time>
      </trkpt>
      <trkpt lat="48.65083" lon="1.95563">
        <ele>178.5</ele>
        <time>2021-08-05T08:18:44Z</time>
      </trkpt>
      <trkpt lat="48.65064" lon="1.95559">
        <ele>178.3</ele>
        <time>2021-08-05T08:18:58Z</time>
      </trkpt>
      <trkpt lat="48.65045" lon="1.95559">
        <ele>178.2</ele>
        <time>2021-08-05T08:19:12Z</time>
      </trkpt>
      <trkpt lat="48.65027" lon="1.95565">
        <ele>178.2</ele>
        <time>2021-08-05T08:19:25Z</time>
      </trkpt>
      <trkpt lat="48.65008" lon="1.95566">
        <ele>178.2</ele>
        <time>2021-08-05T08:19:38Z</time>
      </trkpt>
      <trkpt lat="48.64989" lon="1.95569">
        <ele>178.2</ele>
        <time>2021-08-05T08:19:51Z</time>
      </trkpt>
      <trkpt lat="48.64971" lon="1.9557">
        <ele>178.1</ele>
        <time>2021-08-05T08:20:06Z</time>
      </trkpt>
      <trkpt lat="48.64952" lon="1.95573">
        <ele>178</ele>
        <time>2021-08-05T08:20:18Z</time>
      </trkpt>
      <trkpt lat="48.64934" lon="1.9558">
        <ele>178.1</ele>
        <time>2021-08-05T08:20:30Z</time>
      </trkpt>
      <trkpt lat="48.64916" lon="1.95588">
        <ele>177.8</ele>
        <time>2021-08-05T08:20:42Z</time>
      </trkpt>
      <trkpt lat="48.64898" lon="1.95593">
        <ele>178</ele>
        <time>2021-08-05T08:20:56Z</time>
      </trkpt>
      <trkpt lat="48.64879" lon="1.95587">
        <ele>178.7</ele>
        <time>2021-08-05T08:21:11Z</time>
      </trkpt>
      <trkpt lat="48.64861" lon="1.95589">
        <ele>179.1</ele>
        <time>2021-08-05T08:21:23Z</time>
      </trkpt>
      <trkpt lat="48.64843" lon="1.95586">
        <ele>179.7</ele>
        <time>2021-08-05T08:21:36Z</time>
      </trkpt>
      <trkpt lat="48.64824" lon="1.95579">
        <ele>179.3</ele>
        <time>2021-08-05T08:21:50Z</time>
      </trkpt>
      <trkpt lat="48.64805" lon="1.95576">
        <ele>178.1</ele>
        <time>2021-08-05T08:22:02Z</time>
      </trkpt>
      <trkpt lat="48.64787" lon="1.95577">
        <ele>177</ele>
        <time>2021-08-05T08:22:14Z</time>
      </trkpt>
      <trkpt lat="48.64769" lon="1.95582">
        <ele>176.1</ele>
        <time>2021-08-05T08:22:26Z</time>
      </trkpt>
      <trkpt lat="48.64751" lon="1.95586">
        <ele>175</ele>
        <time>2021-08-05T08:22:39Z</time>
      </trkpt>
      <trkpt lat="48.64733" lon="1.95594">
        <ele>174.2</ele>
        <time>2021-08-05T08:22:53Z</time>
      </trkpt>
      <trkpt lat="48.64715" lon="1.95601">
        <ele>173.5</ele>
        <time>2021-08-05T08:23:06Z</time>
      </trkpt>
      <trkpt lat="48.64697" lon="1.9561">
        <ele>172.9</ele>
        <time>2021-08-05T08:23:18Z</time>
      </trkpt>
      <trkpt lat="48.64679" lon="1.95607">
        <ele>172.4</ele>
        <time>2021-08-05T08:23:33Z</time>
      </trkpt>
      <trkpt lat="48.64661" lon="1.95617">
        <ele>172</ele>
        <time>2021-08-05T08:23:50Z</time>
      </trkpt>
      <trkpt lat="48.64642" lon="1.95618">
        <ele>172</ele>
        <time>2021-08-05T08:24:04Z</time>
      </trkpt>
      <trkpt lat="48.64624" lon="1.9563">
        <ele>172.1</ele>
        <time>2021-08-05T08:24:20Z</time>
      </trkpt>
      <trkpt lat="48.64606" lon="1.95633">
        <ele>172.1</ele>
        <time>2021-08-05T08:24:34Z</time>
      </trkpt>
      <trkpt lat="48.64587" lon="1.95635">
        <ele>172.2</ele>
        <time>2021-08-05T08:29:50Z</time>
      </trkpt>
      <trkpt lat="48.64568" lon="1.95628">
        <ele>172.2</ele>
        <time>2021-08-05T08:30:07Z</time>
      </trkpt>
      <trkpt lat="48.6455" lon="1.95623">
        <ele>172.2</ele>
        <time>2021-08-05T08:30:22Z</time>
      </trkpt>
      <trkpt lat="48.64532" lon="1.95619">
        <ele>172.2</ele>
        <time>2021-08-05T08:30:36Z</time>
      </trkpt>
      <trkpt lat="48.64513" lon="1.95624">
        <ele>172.4</ele>
        <time>2021-08-05T08:30:49Z</time>
      </trkpt>
      <trkpt lat="48.64495" lon="1.95629">
        <ele>172.6</ele>
        <time>2021-08-05T08:31:04Z</time>
      </trkpt>
      <trkpt lat="48.64477" lon="1.95626">
        <ele>172.9</ele>
        <time>2021-08-05T08:31:18Z</time>
      </trkpt>
      <trkpt lat="48.64458" lon="1.9562">
        <ele>173.3</ele>
        <time>2021-08-05T08:31:33Z</time>
      </trkpt>
      <trkpt lat="48.6444" lon="1.95617">
        <ele>173.8</ele>
        <time>2021-08-05T08:31:46Z</time>
      </trkpt>
      <trkpt lat="48.64422" lon="1.95606">
        <ele>174.7</ele>
        <time>2021-08-05T08:32:00Z</time>
      </trkpt>
      <trkpt lat="48.64406" lon="1.9559">
        <ele>175.5</ele>
        <time>2021-08-05T08:32:13Z</time>
      </trkpt>
      <trkpt lat="48.64389" lon="1.95581">
        <ele>175.6</ele>
        <time>2021-08-05T08:32:27Z</time>
      </trkpt>
      <trkpt lat="48.64371" lon="1.95574">
        <ele>175.4</ele>
        <time>2021-08-05T08:32:41Z</time>
      </trkpt>
      <trkpt lat="48.64354" lon="1.95564">
        <ele>175.2</ele>
        <time>2021-08-05T08:32:55Z</time>
      </trkpt>
      <trkpt lat="48.64338" lon="1.95551">
        <ele>175</ele>
        <time>2021-08-05T08:33:09Z</time>
      </trkpt>
      <trkpt lat="48.64321" lon="1.95539">
        <ele>174.6</ele>
        <time>2021-08-05T08:33:22Z</time>
      </trkpt>
      <trkpt lat="48.64305" lon="1.95526">
        <ele>174.1</ele>
        <time>2021-08-05T08:33:34Z</time>
      </trkpt>
      <trkpt lat="48.64288" lon="1.95513">
        <ele>173.8</ele>
        <time>2021-08-05T08:33:48Z</time>
      </trkpt>
      <trkpt lat="48.6427" lon="1.95502">
        <ele>173.5</ele>
        <time>2021-08-05T08:34:08Z</time>
      </trkpt>
      <trkpt lat="48.64254" lon="1.95488">
        <ele>172.5</ele>
        <time>2021-08-05T08:34:23Z</time>
      </trkpt>
      <trkpt lat="48.64237" lon="1.95479">
        <ele>171.9</ele>
        <time>2021-08-05T08:34:35Z</time>
      </trkpt>
      <trkpt lat="48.64219" lon="1.95471">
        <ele>171.5</ele>
        <time>2021-08-05T08:34:48Z</time>
      </trkpt>
      <trkpt lat="48.64202" lon="1.95459">
        <ele>171.3</ele>
        <time>2021-08-05T08:35:05Z</time>
      </trkpt>
      <trkpt lat="48.64185" lon="1.95449">
        <ele>171.4</ele>
        <time>2021-08-05T08:35:19Z</time>
      </trkpt>
      <trkpt lat="48.64169" lon="1.95436">
        <ele>171.7</ele>
        <time>2021-08-05T08:35:34Z</time>
      </trkpt>
      <trkpt lat="48.64151" lon="1.95426">
        <ele>172.2</ele>
        <time>2021-08-05T08:35:51Z</time>
      </trkpt>
      <trkpt lat="48.64134" lon="1.95414">
        <ele>172.7</ele>
        <time>2021-08-05T08:36:07Z</time>
      </trkpt>
      <trkpt lat="48.64117" lon="1.95408">
        <ele>172.9</ele>
        <time>2021-08-05T08:36:21Z</time>
      </trkpt>
      <trkpt lat="48.641" lon="1.95397">
        <ele>173.2</ele>
        <time>2021-08-05T08:36:34Z</time>
      </trkpt>
      <trkpt lat="48.64083" lon="1.95387">
        <ele>173.6</ele>
        <time>2021-08-05T08:36:47Z</time>
      </trkpt>
      <trkpt lat="48.64066" lon="1.95375">
        <ele>172.9</ele>
        <time>2021-08-05T08:37:01Z</time>
      </trkpt>
      <trkpt lat="48.64049" lon="1.95363">
        <ele>172</ele>
        <time>2021-08-05T08:37:16Z</time>
      </trkpt>
      <trkpt lat="48.64032" lon="1.95353">
        <ele>171.1</ele>
        <time>2021-08-05T08:37:27Z</time>
      </trkpt>
      <trkpt lat="48.64013" lon="1.9536">
        <ele>170.5</ele>
        <time>2021-08-05T08:37:41Z</time>
      </trkpt>
      <trkpt lat="48.63996" lon="1.95374">
        <ele>170</ele>
        <time>2021-08-05T08:37:54Z</time>
      </trkpt>
      <trkpt lat="48.63978" lon="1.95378">
        <ele>167.8</ele>
        <time>2021-08-05T08:38:08Z</time>
      </trkpt>
      <trkpt lat="48.6396" lon="1.95383">
        <ele>165.8</ele>
        <time>2021-08-05T08:38:23Z</time>
      </trkpt>
      <trkpt lat="48.63958" lon="1.95354">
        <ele>163.4</ele>
        <time>2021-08-05T08:38:44Z</time>
      </trkpt>
      <trkpt lat="48.63939" lon="1.95351">
        <ele>160.3</ele>
        <time>2021-08-05T08:39:25Z</time>
      </trkpt>
      <trkpt lat="48.63951" lon="1.9533">
        <ele>160.2</ele>
        <time>2021-08-05T08:39:43Z</time>
      </trkpt>
      <trkpt lat="48.63933" lon="1.95336">
        <ele>158</ele>
        <time>2021-08-05T08:40:02Z</time>
      </trkpt>
      <trkpt lat="48.63944" lon="1.95313">
        <ele>156.5</ele>
        <time>2021-08-05T08:40:32Z</time>
      </trkpt>
      <trkpt lat="48.63949" lon="1.95286">
        <ele>152.6</ele>
        <time>2021-08-05T08:40:49Z</time>
      </trkpt>
      <trkpt lat="48.63956" lon="1.9526">
        <ele>149.3</ele>
        <time>2021-08-05T08:41:10Z</time>
      </trkpt>
      <trkpt lat="48.63966" lon="1.95236">
        <ele>146.7</ele>
        <time>2021-08-05T08:41:28Z</time>
      </trkpt>
      <trkpt lat="48.63973" lon="1.95211">
        <ele>143.1</ele>
        <time>2021-08-05T08:41:44Z</time>
      </trkpt>
      <trkpt lat="48.63976" lon="1.95183">
        <ele>138.5</ele>
        <time>2021-08-05T08:41:57Z</time>
      </trkpt>
      <trkpt lat="48.63977" lon="1.95154">
        <ele>134.5</ele>
        <time>2021-08-05T08:42:08Z</time>
      </trkpt>
      <trkpt lat="48.63982" lon="1.95126">
        <ele>132</ele>
        <time>2021-08-05T08:42:22Z</time>
      </trkpt>
      <trkpt lat="48.63988" lon="1.951">
        <ele>129.6</ele>
        <time>2021-08-05T08:42:37Z</time>
      </trkpt>
      <trkpt lat="48.63992" lon="1.95073">
        <ele>127.8</ele>
        <time>2021-08-05T08:42:52Z</time>
      </trkpt>
      <trkpt lat="48.6398" lon="1.95053">
        <ele>127.3</ele>
        <time>2021-08-05T08:43:03Z</time>
      </trkpt>
      <trkpt lat="48.63968" lon="1.9503">
        <ele>126.7</ele>
        <time>2021-08-05T08:43:17Z</time>
      </trkpt>
      <trkpt lat="48.63981" lon="1.95011">
        <ele>126.3</ele>
        <time>2021-08-05T08:43:35Z</time>
      </trkpt>
      <trkpt lat="48.6399" lon="1.94986">
        <ele>126</ele>
        <time>2021-08-05T08:43:49Z</time>
      </trkpt>
      <trkpt lat="48.63992" lon="1.94959">
        <ele>126</ele>
        <time>2021-08-05T08:44:03Z</time>
      </trkpt>
      <trkpt lat="48.63995" lon="1.94932">
        <ele>125.9</ele>
        <time>2021-08-05T08:44:16Z</time>
      </trkpt>
      <trkpt lat="48.63999" lon="1.94904">
        <ele>126.1</ele>
        <time>2021-08-05T08:44:30Z</time>
      </trkpt>
      <trkpt lat="48.64004" lon="1.94875">
        <ele>126.5</ele>
        <time>2021-08-05T08:44:46Z</time>
      </trkpt>
      <trkpt lat="48.64004" lon="1.94847">
        <ele>126.8</ele>
        <time>2021-08-05T08:44:59Z</time>
      </trkpt>
      <trkpt lat="48.64011" lon="1.94821">
        <ele>127.1</ele>
        <time>2021-08-05T08:45:15Z</time>
      </trkpt>
      <trkpt lat="48.64027" lon="1.94806">
        <ele>127.2</ele>
        <time>2021-08-05T08:45:36Z</time>
      </trkpt>
      <trkpt lat="48.6404" lon="1.94786">
        <ele>127.6</ele>
        <time>2021-08-05T08:45:56Z</time>
      </trkpt>
      <trkpt lat="48.64052" lon="1.94765">
        <ele>128.2</ele>
        <time>2021-08-05T08:46:18Z</time>
      </trkpt>
      <trkpt lat="48.64069" lon="1.94755">
        <ele>128.7</ele>
        <time>2021-08-05T08:46:42Z</time>
      </trkpt>
      <trkpt lat="48.64087" lon="1.94748">
        <ele>129.2</ele>
        <time>2021-08-05T08:46:58Z</time>
      </trkpt>
      <trkpt lat="48.64105" lon="1.94741">
        <ele>130.4</ele>
        <time>2021-08-05T08:47:13Z</time>
      </trkpt>
      <trkpt lat="48.64123" lon="1.94743">
        <ele>132</ele>
        <time>2021-08-05T08:47:25Z</time>
      </trkpt>
      <trkpt lat="48.64141" lon="1.94738">
        <ele>133</ele>
        <time>2021-08-05T08:47:38Z</time>
      </trkpt>
      <trkpt lat="48.64159" lon="1.94734">
        <ele>134.1</ele>
        <time>2021-08-05T08:47:53Z</time>
      </trkpt>
      <trkpt lat="48.64179" lon="1.94735">
        <ele>134.9</ele>
        <time>2021-08-05T08:48:08Z</time>
      </trkpt>
      <trkpt lat="48.64197" lon="1.94741">
        <ele>135.7</ele>
        <time>2021-08-05T08:48:22Z</time>
      </trkpt>
      <trkpt lat="48.64216" lon="1.94738">
        <ele>135.7</ele>
        <time>2021-08-05T08:48:37Z</time>
      </trkpt>
      <trkpt lat="48.6423" lon="1.94721">
        <ele>134.9</ele>
        <time>2021-08-05T08:48:58Z</time>
      </trkpt>
      <trkpt lat="48.64246" lon="1.94706">
        <ele>134.3</ele>
        <time>2021-08-05T08:49:14Z</time>
      </trkpt>
      <trkpt lat="48.64262" lon="1.94692">
        <ele>136.1</ele>
        <time>2021-08-05T08:49:28Z</time>
      </trkpt>
      <trkpt lat="48.6428" lon="1.94696">
        <ele>140.2</ele>
        <time>2021-08-05T08:49:50Z</time>
      </trkpt>
      <trkpt lat="48.64297" lon="1.9471">
        <ele>144.5</ele>
        <time>2021-08-05T08:50:04Z</time>
      </trkpt>
      <trkpt lat="48.64312" lon="1.94726">
        <ele>148.1</ele>
        <time>2021-08-05T08:50:19Z</time>
      </trkpt>
      <trkpt lat="48.64327" lon="1.94742">
        <ele>151.5</ele>
        <time>2021-08-05T08:50:54Z</time>
      </trkpt>
      <trkpt lat="48.64338" lon="1.94765">
        <ele>152.4</ele>
        <time>2021-08-05T08:51:01Z</time>
      </trkpt>
      <trkpt lat="48.64354" lon="1.9478">
        <ele>154</ele>
        <time>2021-08-05T08:51:34Z</time>
      </trkpt>
      <trkpt lat="48.64368" lon="1.948">
        <ele>154.6</ele>
        <time>2021-08-05T08:51:48Z</time>
      </trkpt>
      <trkpt lat="48.64384" lon="1.94812">
        <ele>156.4</ele>
        <time>2021-08-05T08:52:08Z</time>
      </trkpt>
      <trkpt lat="48.64399" lon="1.94828">
        <ele>157.4</ele>
        <time>2021-08-05T08:52:25Z</time>
      </trkpt>
      <trkpt lat="48.64414" lon="1.94845">
        <ele>157.5</ele>
        <time>2021-08-05T08:52:53Z</time>
      </trkpt>
      <trkpt lat="48.64433" lon="1.94854">
        <ele>157.9</ele>
        <time>2021-08-05T08:53:08Z</time>
      </trkpt>
      <trkpt lat="48.64448" lon="1.94868">
        <ele>157.3</ele>
        <time>2021-08-05T08:53:25Z</time>
      </trkpt>
      <trkpt lat="48.64463" lon="1.94883">
        <ele>156.7</ele>
        <time>2021-08-05T08:54:11Z</time>
      </trkpt>
      <trkpt lat="48.64482" lon="1.94883">
        <ele>158.9</ele>
        <time>2021-08-05T08:54:21Z</time>
      </trkpt>
      <trkpt lat="48.64492" lon="1.94859">
        <ele>163</ele>
        <time>2021-08-05T08:55:05Z</time>
      </trkpt>
      <trkpt lat="48.645" lon="1.94834">
        <ele>166.9</ele>
        <time>2021-08-05T08:55:17Z</time>
      </trkpt>
      <trkpt lat="48.6451" lon="1.94811">
        <ele>169.1</ele>
        <time>2021-08-05T08:55:40Z</time>
      </trkpt>
      <trkpt lat="48.64528" lon="1.94805">
        <ele>170.2</ele>
        <time>2021-08-05T08:56:02Z</time>
      </trkpt>
      <trkpt lat="48.64534" lon="1.94778">
        <ele>171.6</ele>
        <time>2021-08-05T08:56:34Z</time>
      </trkpt>
      <trkpt lat="48.64542" lon="1.94754">
        <ele>172.8</ele>
        <time>2021-08-05T08:56:56Z</time>
      </trkpt>
      <trkpt lat="48.64553" lon="1.94731">
        <ele>174.1</ele>
        <time>2021-08-05T08:57:16Z</time>
      </trkpt>
      <trkpt lat="48.64561" lon="1.94705">
        <ele>175.4</ele>
        <time>2021-08-05T08:57:33Z</time>
      </trkpt>
      <trkpt lat="48.64567" lon="1.94679">
        <ele>176.7</ele>
        <time>2021-08-05T08:57:45Z</time>
      </trkpt>
      <trkpt lat="48.64572" lon="1.94651">
        <ele>177.4</ele>
        <time>2021-08-05T08:58:02Z</time>
      </trkpt>
      <trkpt lat="48.64584" lon="1.9463">
        <ele>177.4</ele>
        <time>2021-08-05T08:58:16Z</time>
      </trkpt>
      <trkpt lat="48.64596" lon="1.94608">
        <ele>177.5</ele>
        <time>2021-08-05T08:58:30Z</time>
      </trkpt>
      <trkpt lat="48.6461" lon="1.9459">
        <ele>177.6</ele>
        <time>2021-08-05T08:58:42Z</time>
      </trkpt>
      <trkpt lat="48.6462" lon="1.94566">
        <ele>177.8</ele>
        <time>2021-08-05T08:58:57Z</time>
      </trkpt>
      <trkpt lat="48.6463" lon="1.94543">
        <ele>177.9</ele>
        <time>2021-08-05T08:59:09Z</time>
      </trkpt>
      <trkpt lat="48.64643" lon="1.94523">
        <ele>178</ele>
        <time>2021-08-05T08:59:21Z</time>
      </trkpt>
      <trkpt lat="48.64657" lon="1.94504">
        <ele>178.1</ele>
        <time>2021-08-05T08:59:35Z</time>
      </trkpt>
      <trkpt lat="48.64666" lon="1.94481">
        <ele>177.8</ele>
        <time>2021-08-05T08:59:52Z</time>
      </trkpt>
      <trkpt lat="48.64665" lon="1.94453">
        <ele>177.5</ele>
        <time>2021-08-05T09:00:07Z</time>
      </trkpt>
      <trkpt lat="48.6468" lon="1.94437">
        <ele>177.4</ele>
        <time>2021-08-05T09:00:20Z</time>
      </trkpt>
      <trkpt lat="48.6469" lon="1.94415">
        <ele>177.3</ele>
        <time>2021-08-05T09:00:34Z</time>
      </trkpt>
      <trkpt lat="48.64699" lon="1.94391">
        <ele>177.7</ele>
        <time>2021-08-05T09:00:48Z</time>
      </trkpt>
      <trkpt lat="48.64709" lon="1.94368">
        <ele>178.1</ele>
        <time>2021-08-05T09:01:04Z</time>
      </trkpt>
      <trkpt lat="48.64715" lon="1.94341">
        <ele>178.5</ele>
        <time>2021-08-05T09:01:21Z</time>
      </trkpt>
      <trkpt lat="48.64727" lon="1.94318">
        <ele>179</ele>
        <time>2021-08-05T09:01:36Z</time>
      </trkpt>
      <trkpt lat="48.64734" lon="1.94293">
        <ele>179.7</ele>
        <time>2021-08-05T09:01:53Z</time>
      </trkpt>
      <trkpt lat="48.64744" lon="1.94269">
        <ele>180.4</ele>
        <time>2021-08-05T09:02:09Z</time>
      </trkpt>
      <trkpt lat="48.64753" lon="1.94244">
        <ele>180.8</ele>
        <time>2021-08-05T09:02:24Z</time>
      </trkpt>
      <trkpt lat="48.64758" lon="1.94217">
        <ele>180.2</ele>
        <time>2021-08-05T09:02:37Z</time>
      </trkpt>
      <trkpt lat="48.6477" lon="1.94194">
        <ele>179.4</ele>
        <time>2021-08-05T09:02:55Z</time>
      </trkpt>
      <trkpt lat="48.64784" lon="1.94176">
        <ele>178.5</ele>
        <time>2021-08-05T09:03:04Z</time>
      </trkpt>
      <trkpt lat="48.64798" lon="1.94156">
        <ele>177.4</ele>
        <time>2021-08-05T09:03:14Z</time>
      </trkpt>
      <trkpt lat="48.64807" lon="1.94133">
        <ele>176</ele>
        <time>2021-08-05T09:03:28Z</time>
      </trkpt>
      <trkpt lat="48.64816" lon="1.94107">
        <ele>174.4</ele>
        <time>2021-08-05T09:03:42Z</time>
      </trkpt>
      <trkpt lat="48.64827" lon="1.94084">
        <ele>172.6</ele>
        <time>2021-08-05T09:03:55Z</time>
      </trkpt>
      <trkpt lat="48.64834" lon="1.94057">
        <ele>171.7</ele>
        <time>2021-08-05T09:04:07Z</time>
      </trkpt>
      <trkpt lat="48.64848" lon="1.94039">
        <ele>171</ele>
        <time>2021-08-05T09:04:20Z</time>
      </trkpt>
      <trkpt lat="48.64857" lon="1.94015">
        <ele>170.6</ele>
        <time>2021-08-05T09:04:34Z</time>
      </trkpt>
      <trkpt lat="48.6487" lon="1.93995">
        <ele>170</ele>
        <time>2021-08-05T09:05:02Z</time>
      </trkpt>
      <trkpt lat="48.64882" lon="1.93975">
        <ele>169.4</ele>
        <time>2021-08-05T09:05:20Z</time>
      </trkpt>
      <trkpt lat="48.6489" lon="1.9395">
        <ele>168.8</ele>
        <time>2021-08-05T09:05:36Z</time>
      </trkpt>
      <trkpt lat="48.64893" lon="1.93923">
        <ele>168.4</ele>
        <time>2021-08-05T09:05:50Z</time>
      </trkpt>
      <trkpt lat="48.64907" lon="1.93905">
        <ele>168</ele>
        <time>2021-08-05T09:06:01Z</time>
      </trkpt>
      <trkpt lat="48.64917" lon="1.93882">
        <ele>167.6</ele>
        <time>2021-08-05T09:06:13Z</time>
      </trkpt>
      <trkpt lat="48.64927" lon="1.93858">
        <ele>167.3</ele>
        <time>2021-08-05T09:06:26Z</time>
      </trkpt>
      <trkpt lat="48.64937" lon="1.93835">
        <ele>167.3</ele>
        <time>2021-08-05T09:06:41Z</time>
      </trkpt>
      <trkpt lat="48.64949" lon="1.93813">
        <ele>167.6</ele>
        <time>2021-08-05T09:06:58Z</time>
      </trkpt>
      <trkpt lat="48.64958" lon="1.9379">
        <ele>168</ele>
        <time>2021-08-05T09:07:14Z</time>
      </trkpt>
      <trkpt lat="48.64971" lon="1.93768">
        <ele>168.7</ele>
        <time>2021-08-05T09:07:29Z</time>
      </trkpt>
      <trkpt lat="48.64984" lon="1.93746">
        <ele>169.4</ele>
        <time>2021-08-05T09:07:44Z</time>
      </trkpt>
      <trkpt lat="48.64991" lon="1.9372">
        <ele>169.7</ele>
        <time>2021-08-05T09:07:58Z</time>
      </trkpt>
      <trkpt lat="48.65002" lon="1.93697">
        <ele>170.1</ele>
        <time>2021-08-05T09:08:13Z</time>
      </trkpt>
      <trkpt lat="48.65015" lon="1.93676">
        <ele>170.9</ele>
        <time>2021-08-05T09:08:29Z</time>
      </trkpt>
      <trkpt lat="48.65023" lon="1.9365">
        <ele>171.2</ele>
        <time>2021-08-05T09:08:44Z</time>
      </trkpt>
      <trkpt lat="48.6503" lon="1.93624">
        <ele>171.3</ele>
        <time>2021-08-05T09:08:56Z</time>
      </trkpt>
      <trkpt lat="48.65039" lon="1.936">
        <ele>171.2</ele>
        <time>2021-08-05T09:09:09Z</time>
      </trkpt>
      <trkpt lat="48.65047" lon="1.93576">
        <ele>171.1</ele>
        <time>2021-08-05T09:09:22Z</time>
      </trkpt>
      <trkpt lat="48.65054" lon="1.9355">
        <ele>171</ele>
        <time>2021-08-05T09:09:37Z</time>
      </trkpt>
      <trkpt lat="48.65072" lon="1.93544">
        <ele>171.3</ele>
        <time>2021-08-05T09:09:51Z</time>
      </trkpt>
      <trkpt lat="48.65084" lon="1.93523">
        <ele>171.3</ele>
        <time>2021-08-05T09:10:05Z</time>
      </trkpt>
      <trkpt lat="48.6509" lon="1.93497">
        <ele>171</ele>
        <time>2021-08-05T09:10:18Z</time>
      </trkpt>
      <trkpt lat="48.65099" lon="1.93472">
        <ele>170.7</ele>
        <time>2021-08-05T09:10:31Z</time>
      </trkpt>
      <trkpt lat="48.65112" lon="1.9345">
        <ele>170.6</ele>
        <time>2021-08-05T09:10:46Z</time>
      </trkpt>
      <trkpt lat="48.65123" lon="1.93427">
        <ele>170.5</ele>
        <time>2021-08-05T09:10:59Z</time>
      </trkpt>
      <trkpt lat="48.65132" lon="1.93404">
        <ele>170.6</ele>
        <time>2021-08-05T09:11:11Z</time>
      </trkpt>
      <trkpt lat="48.6514" lon="1.93379">
        <ele>170.8</ele>
        <time>2021-08-05T09:11:23Z</time>
      </trkpt>
      <trkpt lat="48.65152" lon="1.93358">
        <ele>171.3</ele>
        <time>2021-08-05T09:11:37Z</time>
      </trkpt>
      <trkpt lat="48.65165" lon="1.93338">
        <ele>171.9</ele>
        <time>2021-08-05T09:11:52Z</time>
      </trkpt>
      <trkpt lat="48.65172" lon="1.93313">
        <ele>172.5</ele>
        <time>2021-08-05T09:12:07Z</time>
      </trkpt>
      <trkpt lat="48.65179" lon="1.93287">
        <ele>172.9</ele>
        <time>2021-08-05T09:12:22Z</time>
      </trkpt>
      <trkpt lat="48.65192" lon="1.93267">
        <ele>173.1</ele>
        <time>2021-08-05T09:12:37Z</time>
      </trkpt>
      <trkpt lat="48.65198" lon="1.93241">
        <ele>173.6</ele>
        <time>2021-08-05T09:12:53Z</time>
      </trkpt>
      <trkpt lat="48.65207" lon="1.93216">
        <ele>174.2</ele>
        <time>2021-08-05T09:13:05Z</time>
      </trkpt>
      <trkpt lat="48.65218" lon="1.93193">
        <ele>174.8</ele>
        <time>2021-08-05T09:13:21Z</time>
      </trkpt>
      <trkpt lat="48.65227" lon="1.93169">
        <ele>175.4</ele>
        <time>2021-08-05T09:13:35Z</time>
      </trkpt>
      <trkpt lat="48.65232" lon="1.93142">
        <ele>176.1</ele>
        <time>2021-08-05T09:13:50Z</time>
      </trkpt>
      <trkpt lat="48.65243" lon="1.93119">
        <ele>176.7</ele>
        <time>2021-08-05T09:14:11Z</time>
      </trkpt>
      <trkpt lat="48.65254" lon="1.93096">
        <ele>177.5</ele>
        <time>2021-08-05T09:14:34Z</time>
      </trkpt>
      <trkpt lat="48.65263" lon="1.93073">
        <ele>178</ele>
        <time>2021-08-05T09:14:58Z</time>
      </trkpt>
      <trkpt lat="48.65275" lon="1.93051">
        <ele>178</ele>
        <time>2021-08-05T09:15:19Z</time>
      </trkpt>
      <trkpt lat="48.65292" lon="1.9304">
        <ele>178</ele>
        <time>2021-08-05T09:15:37Z</time>
      </trkpt>
      <trkpt lat="48.6531" lon="1.93047">
        <ele>178</ele>
        <time>2021-08-05T09:16:10Z</time>
      </trkpt>
      <trkpt lat="48.65325" lon="1.93062">
        <ele>178</ele>
        <time>2021-08-05T09:16:26Z</time>
      </trkpt>
      <trkpt lat="48.65341" lon="1.93074">
        <ele>177.5</ele>
        <time>2021-08-05T09:16:42Z</time>
      </trkpt>
      <trkpt lat="48.65357" lon="1.9309">
        <ele>176.3</ele>
        <time>2021-08-05T09:16:57Z</time>
      </trkpt>
      <trkpt lat="48.65375" lon="1.93102">
        <ele>174.7</ele>
        <time>2021-08-05T09:17:12Z</time>
      </trkpt>
      <trkpt lat="48.6539" lon="1.93119">
        <ele>173.3</ele>
        <time>2021-08-05T09:17:28Z</time>
      </trkpt>
      <trkpt lat="48.65406" lon="1.93133">
        <ele>172.2</ele>
        <time>2021-08-05T09:17:42Z</time>
      </trkpt>
      <trkpt lat="48.65422" lon="1.93145">
        <ele>171</ele>
        <time>2021-08-05T09:18:05Z</time>
      </trkpt>
      <trkpt lat="48.65439" lon="1.93154">
        <ele>169.2</ele>
        <time>2021-08-05T09:18:59Z</time>
      </trkpt>
      <trkpt lat="48.65452" lon="1.93174">
        <ele>167.3</ele>
        <time>2021-08-05T09:19:37Z</time>
      </trkpt>
      <trkpt lat="48.65467" lon="1.9319">
        <ele>165.3</ele>
        <time>2021-08-05T09:19:53Z</time>
      </trkpt>
      <trkpt lat="48.6548" lon="1.93211">
        <ele>163.4</ele>
        <time>2021-08-05T09:20:21Z</time>
      </trkpt>
      <trkpt lat="48.65493" lon="1.93229">
        <ele>161.4</ele>
        <time>2021-08-05T09:20:44Z</time>
      </trkpt>
      <trkpt lat="48.65507" lon="1.93247">
        <ele>160</ele>
        <time>2021-08-05T09:21:19Z</time>
      </trkpt>
      <trkpt lat="48.65524" lon="1.93256">
        <ele>159.4</ele>
        <time>2021-08-05T09:21:36Z</time>
      </trkpt>
      <trkpt lat="48.65543" lon="1.93255">
        <ele>159.3</ele>
        <time>2021-08-05T09:22:00Z</time>
      </trkpt>
      <trkpt lat="48.6556" lon="1.93247">
        <ele>159.4</ele>
        <time>2021-08-05T09:22:17Z</time>
      </trkpt>
      <trkpt lat="48.65579" lon="1.93247">
        <ele>159.1</ele>
        <time>2021-08-05T09:22:38Z</time>
      </trkpt>
      <trkpt lat="48.65597" lon="1.93242">
        <ele>160</ele>
        <time>2021-08-05T09:22:57Z</time>
      </trkpt>
      <trkpt lat="48.65616" lon="1.93234">
        <ele>161.3</ele>
        <time>2021-08-05T09:23:13Z</time>
      </trkpt>
      <trkpt lat="48.65634" lon="1.93231">
        <ele>162.4</ele>
        <time>2021-08-05T09:23:27Z</time>
      </trkpt>
      <trkpt lat="48.6565" lon="1.93218">
        <ele>163.5</ele>
        <time>2021-08-05T09:23:48Z</time>
      </trkpt>
      <trkpt lat="48.65656" lon="1.93191">
        <ele>164.1</ele>
        <time>2021-08-05T09:24:05Z</time>
      </trkpt>
      <trkpt lat="48.65652" lon="1.93164">
        <ele>164.4</ele>
        <time>2021-08-05T09:24:26Z</time>
      </trkpt>
      <trkpt lat="48.65642" lon="1.9314">
        <ele>164.7</ele>
        <time>2021-08-05T09:24:46Z</time>
      </trkpt>
      <trkpt lat="48.65638" lon="1.93113">
        <ele>165.6</ele>
        <time>2021-08-05T09:25:04Z</time>
      </trkpt>
      <trkpt lat="48.65631" lon="1.93087">
        <ele>166.4</ele>
        <time>2021-08-05T09:25:25Z</time>
      </trkpt>
      <trkpt lat="48.65635" lon="1.93058">
        <ele>167.4</ele>
        <time>2021-08-05T09:25:59Z</time>
      </trkpt>
      <trkpt lat="48.65642" lon="1.93032">
        <ele>168.4</ele>
        <time>2021-08-05T09:26:14Z</time>
      </trkpt>
      <trkpt lat="48.65649" lon="1.93005">
        <ele>169.4</ele>
        <time>2021-08-05T09:26:28Z</time>
      </trkpt>
      <trkpt lat="48.65645" lon="1.92977">
        <ele>170.1</ele>
        <time>2021-08-05T09:26:44Z</time>
      </trkpt>
      <trkpt lat="48.65644" lon="1.9295">
        <ele>170.8</ele>
        <time>2021-08-05T09:27:02Z</time>
      </trkpt>
      <trkpt lat="48.65645" lon="1.92921">
        <ele>171.6</ele>
        <time>2021-08-05T09:27:24Z</time>
      </trkpt>
      <trkpt lat="48.65642" lon="1.92893">
        <ele>171.9</ele>
        <time>2021-08-05T09:27:38Z</time>
      </trkpt>
      <trkpt lat="48.6564" lon="1.92865">
        <ele>172.2</ele>
        <time>2021-08-05T09:27:52Z</time>
      </trkpt>
      <trkpt lat="48.6564" lon="1.92837">
        <ele>172.6</ele>
        <time>2021-08-05T09:28:11Z</time>
      </trkpt>
      <trkpt lat="48.65637" lon="1.92809">
        <ele>172.1</ele>
        <time>2021-08-05T09:28:25Z</time>
      </trkpt>
      <trkpt lat="48.65634" lon="1.92781">
        <ele>171.5</ele>
        <time>2021-08-05T09:28:39Z</time>
      </trkpt>
      <trkpt lat="48.65635" lon="1.92753">
        <ele>171</ele>
        <time>2021-08-05T09:28:53Z</time>
      </trkpt>
      <trkpt lat="48.65635" lon="1.92726">
        <ele>171</ele>
        <time>2021-08-05T09:29:09Z</time>
      </trkpt>
      <trkpt lat="48.65632" lon="1.92697">
        <ele>171.2</ele>
        <time>2021-08-05T09:29:25Z</time>
      </trkpt>
      <trkpt lat="48.6563" lon="1.92669">
        <ele>171.3</ele>
        <time>2021-08-05T09:29:39Z</time>
      </trkpt>
      <trkpt lat="48.65626" lon="1.92641">
        <ele>171.3</ele>
        <time>2021-08-05T09:29:53Z</time>
      </trkpt>
      <trkpt lat="48.65622" lon="1.92613">
        <ele>171.3</ele>
        <time>2021-08-05T09:30:06Z</time>
      </trkpt>
      <trkpt lat="48.65618" lon="1.92586">
        <ele>171.3</ele>
        <time>2021-08-05T09:30:26Z</time>
      </trkpt>
      <trkpt lat="48.65614" lon="1.92558">
        <ele>171.6</ele>
        <time>2021-08-05T09:30:42Z</time>
      </trkpt>
      <trkpt lat="48.65602" lon="1.92538">
        <ele>172.2</ele>
        <time>2021-08-05T09:31:00Z</time>
      </trkpt>
      <trkpt lat="48.65586" lon="1.92523">
        <ele>172.9</ele>
        <time>2021-08-05T09:31:16Z</time>
      </trkpt>
      <trkpt lat="48.6557" lon="1.92509">
        <ele>173</ele>
        <time>2021-08-05T09:31:33Z</time>
      </trkpt>
      <trkpt lat="48.65554" lon="1.92496">
        <ele>173</ele>
        <time>2021-08-05T09:31:48Z</time>
      </trkpt>
    </trkseg>
  </trk>
</gpx>